Plankton, Ohio
Current Conditions -  °F | °C
As of 2:53 AM on Friday 28 Nov 2014 (Local Time) from KMNN Reporting Station
Overcast Overcast  
Wind Chill: 17°   Ceiling: 2100
Heat Index: 25°   Visibility: 10mi
Dew Point: 19°   Wind: 7mph
Humidity: 78%   Direction: 310°NW
Pressure: 30.33"   Gusts: NA
Location:  40.948°N, 83.1346°W
Report Text: KMNN 280753Z AUTO 31006KT 10SM BKN021 BKN027 OVC050 M04/M07 A3033 RMK AO2 SLP283 T10391072 TSNO
Loading
Personal Weather Stations






























Interactive Weather Map New forecast layout! Learn more

10-Day Weather Forecast

Advertisements
Track Severe Weather on mobile